createdAt,value
2023-03-30T00:04:00.578Z,100.00
2023-03-30T00:09:06.200Z,100.00
2023-03-30T00:14:07.890Z,100.00
2023-03-30T00:19:09.557Z,100.00
2023-03-30T00:24:14.259Z,100.00
2023-03-30T00:29:15.965Z,100.00
2023-03-30T00:34:17.689Z,100.00
2023-03-30T00:39:26.698Z,100.00
2023-03-30T00:45:07.860Z,100.00
2023-03-30T00:50:10.261Z,100.00
2023-03-30T00:55:12.658Z,100.00
2023-03-30T01:00:19.399Z,100.00
2023-03-30T01:05:44.805Z,100.00
2023-03-30T01:10:49.043Z,100.00
2023-03-30T01:16:43.324Z,100.00
2023-03-30T01:21:55.631Z,100.00
2023-03-30T01:27:08.644Z,100.00
2023-03-30T01:32:41.902Z,100.00
2023-03-30T01:37:56.108Z,100.00
2023-03-30T01:43:11.560Z,100.00
2023-03-30T01:48:23.760Z,100.00
2023-03-30T01:53:32.974Z,100.00
2023-03-30T01:58:39.514Z,100.00
2023-03-30T02:03:49.864Z,100.00
2023-03-30T02:08:54.939Z,100.00
2023-03-30T02:14:02.276Z,100.00
2023-03-30T02:19:06.731Z,100.00
2023-03-30T02:24:17.901Z,100.00
2023-03-30T02:29:21.190Z,100.00
2023-03-30T02:34:44.652Z,100.00
2023-03-30T02:39:59.126Z,100.00
2023-03-30T02:45:26.066Z,100.00
2023-03-30T02:50:50.185Z,100.00
2023-03-30T02:56:16.504Z,100.00
2023-03-30T03:01:34.160Z,100.00
2023-03-30T03:06:42.778Z,100.00
2023-03-30T03:11:47.202Z,100.00
2023-03-30T03:16:48.968Z,100.00
2023-03-30T03:21:57.744Z,100.00
2023-03-30T03:27:02.970Z,100.00
2023-03-30T03:32:11.838Z,100.00
2023-03-30T03:37:18.609Z,100.00
2023-03-30T03:42:23.385Z,100.00
2023-03-30T03:47:38.189Z,100.00
2023-03-30T03:52:42.400Z,100.00
2023-03-30T03:57:48.602Z,100.00
2023-03-30T04:02:50.857Z,100.00
2023-03-30T04:07:56.839Z,100.00
2023-03-30T04:12:58.764Z,100.00
2023-03-30T04:18:31.456Z,100.00
2023-03-30T04:23:52.015Z,100.00
2023-03-30T04:28:53.834Z,100.00
2023-03-30T04:34:21.953Z,100.00
2023-03-30T04:39:23.941Z,100.00
2023-03-30T04:44:37.038Z,100.00
2023-03-30T04:49:53.117Z,100.00
2023-03-30T04:55:26.611Z,100.00
2023-03-30T05:00:42.557Z,100.00
2023-03-30T05:06:21.795Z,100.00
2023-03-30T05:11:34.041Z,100.00
2023-03-30T05:16:56.091Z,100.00
2023-03-30T05:22:32.708Z,100.00
2023-03-30T05:27:52.900Z,100.00
2023-03-30T05:33:05.194Z,100.00
2023-03-30T05:38:25.415Z,100.00
2023-03-30T05:43:53.254Z,100.00
2023-03-30T05:49:09.731Z,100.00
2023-03-30T05:54:19.139Z,100.00
2023-03-30T05:59:25.644Z,100.00
2023-03-30T06:04:47.663Z,100.00
2023-03-30T06:09:51.393Z,100.00
2023-03-30T06:15:05.139Z,100.00
2023-03-30T06:20:26.906Z,100.00
2023-03-30T06:25:29.676Z,100.00
2023-03-30T06:30:33.854Z,100.00
2023-03-30T06:35:39.490Z,100.00
2023-03-30T06:40:43.999Z,100.00
2023-03-30T06:45:53.104Z,100.00
2023-03-30T06:50:58.011Z,100.00
2023-03-30T06:56:06.920Z,100.00
2023-03-30T07:01:16.007Z,100.00
2023-03-30T07:06:46.571Z,100.00
2023-03-30T07:11:48.946Z,100.00
2023-03-30T07:16:53.596Z,100.00
2023-03-30T07:21:56.115Z,100.00
2023-03-30T07:27:04.315Z,100.00
2023-03-30T07:32:07.203Z,100.00
2023-03-30T07:37:09.739Z,100.00
2023-03-30T07:42:14.278Z,100.00
2023-03-30T07:47:17.269Z,100.00
2023-03-30T07:52:19.852Z,100.00
2023-03-30T07:57:30.080Z,100.00
2023-03-30T08:02:32.797Z,100.00
2023-03-30T08:07:38.144Z,100.00
2023-03-30T08:12:47.540Z,100.00
2023-03-30T08:17:49.326Z,100.00
2023-03-30T08:22:51.615Z,100.00
2023-03-30T08:27:56.381Z,100.00
2023-03-30T08:32:58.646Z,100.00
2023-03-30T08:38:02.889Z,100.00
2023-03-30T08:43:25.826Z,100.00
2023-03-30T08:48:30.558Z,100.00
2023-03-30T08:53:33.444Z,100.00
2023-03-30T08:59:00.982Z,100.00
2023-03-30T09:04:32.185Z,100.00
2023-03-30T09:09:43.050Z,100.00
2023-03-30T09:14:51.753Z,100.00
2023-03-30T09:20:29.473Z,100.00
2023-03-30T09:26:09.837Z,100.00
2023-03-30T09:31:21.799Z,100.00
2023-03-30T09:37:10.023Z,100.00
2023-03-30T09:42:21.206Z,100.00
2023-03-30T09:47:37.153Z,100.00
2023-03-30T09:52:41.803Z,100.00
2023-03-30T09:57:45.906Z,100.00
2023-03-30T10:02:57.832Z,100.00
2023-03-30T10:08:05.802Z,100.00
2023-03-30T10:13:17.158Z,100.00
2023-03-30T10:18:19.476Z,100.00
2023-03-30T10:23:24.349Z,100.00
2023-03-30T10:28:27.264Z,100.00
2023-03-30T10:33:30.401Z,100.00
2023-03-30T10:38:37.737Z,100.00
2023-03-30T10:43:39.775Z,100.00
2023-03-30T10:49:11.894Z,100.00
2023-03-30T10:54:37.639Z,100.00
2023-03-30T10:59:45.845Z,100.00
2023-03-30T11:05:04.953Z,99.94
2023-03-30T11:10:32.443Z,100.00
2023-03-30T11:15:52.108Z,97.18
2023-03-30T11:21:19.847Z,93.00
2023-03-30T11:26:27.614Z,88.32
2023-03-30T11:31:40.310Z,86.65
2023-03-30T11:36:55.725Z,86.00
2023-03-30T11:42:02.663Z,84.55
2023-03-30T11:47:53.211Z,84.74
2023-03-30T11:53:12.736Z,84.84
2023-03-30T11:58:38.955Z,81.80
2023-03-30T12:03:49.837Z,82.37
2023-03-30T12:09:10.797Z,83.70
2023-03-30T12:14:27.708Z,84.54
2023-03-30T12:19:42.619Z,84.71
2023-03-30T12:25:12.537Z,84.36
2023-03-30T12:30:23.484Z,84.07
2023-03-30T12:35:51.056Z,85.52
2023-03-30T12:40:55.924Z,88.36
2023-03-30T12:46:06.303Z,94.47
2023-03-30T12:51:14.666Z,100.00
2023-03-30T12:56:42.381Z,100.00
2023-03-30T13:02:08.972Z,100.00
2023-03-30T13:07:16.878Z,100.00
2023-03-30T13:12:29.584Z,99.84
2023-03-30T13:17:57.462Z,97.39
2023-03-30T13:23:13.620Z,96.78
2023-03-30T13:28:36.349Z,100.00
2023-03-30T13:33:41.377Z,100.00
2023-03-30T13:39:14.397Z,100.00
2023-03-30T13:44:37.610Z,100.00
2023-03-30T13:49:59.029Z,100.00
2023-03-30T13:55:04.909Z,99.72
2023-03-30T14:00:25.082Z,97.00
2023-03-30T14:05:27.888Z,96.00
2023-03-30T14:10:29.607Z,92.84
2023-03-30T14:15:39.239Z,91.19
2023-03-30T14:20:46.923Z,87.16
2023-03-30T14:25:48.747Z,82.81
2023-03-30T14:30:56.685Z,79.39
2023-03-30T14:36:00.354Z,80.56
2023-03-30T14:41:02.234Z,83.87
2023-03-30T14:46:09.185Z,84.51
2023-03-30T14:51:34.296Z,85.57
2023-03-30T14:56:36.907Z,85.15
2023-03-30T15:01:38.763Z,83.30
2023-03-30T15:06:41.522Z,72.83
2023-03-30T15:11:49.144Z,62.40
2023-03-30T15:16:53.851Z,65.32
2023-03-30T15:21:58.900Z,64.62
2023-03-30T15:27:06.052Z,59.19
2023-03-30T15:32:09.998Z,56.18
2023-03-30T15:37:22.768Z,55.81
2023-03-30T15:42:29.608Z,58.92
2023-03-30T15:47:36.758Z,60.59
2023-03-30T15:52:42.986Z,63.56
2023-03-30T15:57:49.227Z,63.60
2023-03-30T16:03:02.087Z,66.68
2023-03-30T16:08:05.635Z,70.49
2023-03-30T16:13:11.094Z,74.20
2023-03-30T16:18:16.608Z,74.81
2023-03-30T16:23:21.082Z,76.73
2023-03-30T16:28:27.377Z,79.98
2023-03-30T16:33:29.658Z,83.74
2023-03-30T16:38:31.756Z,98.85
2023-03-30T16:43:35.765Z,100.00
2023-03-30T16:48:40.715Z,100.00
2023-03-30T16:53:43.754Z,100.00
2023-03-30T16:58:46.646Z,100.00
2023-03-30T17:03:52.960Z,100.00
2023-03-30T17:08:55.535Z,100.00
2023-03-30T17:14:01.768Z,100.00
2023-03-30T17:19:12.514Z,100.00
2023-03-30T17:24:17.282Z,100.00
2023-03-30T17:29:18.935Z,100.00
2023-03-30T17:34:20.907Z,100.00
2023-03-30T17:39:27.516Z,100.00
2023-03-30T17:44:33.975Z,100.00
2023-03-30T17:49:37.998Z,100.00
2023-03-30T17:54:43.002Z,100.00
2023-03-30T17:59:47.426Z,100.00
2023-03-30T18:04:53.858Z,100.00
2023-03-30T18:09:57.848Z,100.00
2023-03-30T18:14:59.523Z,100.00
2023-03-30T18:20:20.014Z,100.00
2023-03-30T18:25:32.116Z,100.00
2023-03-30T18:30:38.306Z,100.00
2023-03-30T18:35:40.243Z,100.00
2023-03-30T18:40:49.341Z,100.00
2023-03-30T18:45:51.520Z,100.00
2023-03-30T18:50:57.366Z,100.00
2023-03-30T18:56:04.203Z,100.00
2023-03-30T19:01:06.864Z,100.00
2023-03-30T19:06:19.646Z,100.00
2023-03-30T19:11:26.156Z,100.00
2023-03-30T19:16:30.399Z,100.00
2023-03-30T19:21:35.387Z,100.00
2023-03-30T19:26:39.306Z,100.00
2023-03-30T19:31:48.472Z,100.00
2023-03-30T19:36:54.830Z,100.00
2023-03-30T19:41:56.579Z,100.00
2023-03-30T19:47:03.545Z,100.00
2023-03-30T19:52:08.271Z,100.00
2023-03-30T19:57:10.271Z,100.00
2023-03-30T20:02:15.015Z,100.00
2023-03-30T20:07:17.125Z,100.00
2023-03-30T20:12:21.398Z,100.00
2023-03-30T20:17:23.122Z,100.00
2023-03-30T20:22:26.984Z,100.00
2023-03-30T20:27:35.619Z,100.00
2023-03-30T20:32:39.821Z,100.00
2023-03-30T20:37:44.357Z,100.00
2023-03-30T20:42:49.704Z,100.00
2023-03-30T20:47:54.017Z,100.00
2023-03-30T20:52:58.860Z,100.00
2023-03-30T20:58:03.544Z,100.00
2023-03-30T21:03:07.751Z,100.00
2023-03-30T21:08:09.795Z,100.00
2023-03-30T21:13:18.721Z,100.00
2023-03-30T21:18:23.480Z,100.00
2023-03-30T21:23:26.568Z,100.00
2023-03-30T21:28:28.657Z,100.00
2023-03-30T21:33:30.599Z,100.00
2023-03-30T21:38:39.281Z,100.00
2023-03-30T21:43:44.194Z,100.00
2023-03-30T21:48:51.808Z,100.00
2023-03-30T21:53:58.226Z,100.00
2023-03-30T21:59:07.010Z,100.00
2023-03-30T22:04:08.768Z,100.00
2023-03-30T22:09:13.831Z,100.00
2023-03-30T22:14:15.687Z,100.00
2023-03-30T22:19:22.745Z,100.00
2023-03-30T22:24:29.273Z,100.00
2023-03-30T22:29:33.446Z,100.00
2023-03-30T22:34:37.746Z,100.00
2023-03-30T22:39:44.795Z,100.00
2023-03-30T22:44:46.928Z,100.00
2023-03-30T22:49:53.708Z,100.00
2023-03-30T22:55:00.387Z,100.00
2023-03-30T23:00:11.934Z,100.00
2023-03-30T23:05:16.148Z,100.00
2023-03-30T23:10:22.317Z,100.00
2023-03-30T23:15:26.823Z,100.00
2023-03-30T23:20:30.997Z,100.00
2023-03-30T23:25:32.760Z,100.00
2023-03-30T23:30:42.061Z,100.00
2023-03-30T23:35:51.003Z,100.00
2023-03-30T23:40:59.443Z,100.00
2023-03-30T23:46:06.155Z,100.00
2023-03-30T23:51:10.854Z,100.00
2023-03-30T23:56:17.024Z,100.00
